Pagrindinis puslapis
METAR-TAF:

METAR-TAF

Oro uostai :

Frontone, Italija

platuma: 43-31N, ilguma: 012-44E, Aukštis: 570 m

Dabartinis oras

Ataskaita buvo paskelbta 54 minutes, ne 12:55 UTC
Vėjas 2 kt iš Pietryčių
Temperatūra 17°C
Drėgmė 29%
Slėgis 1030 hPa
Matomumas 10 km arba daugiau
nėra debesų žemiau 1500 m ir nėra kamuolinių lietaus debesų

METAR: LIVF 251255Z 14002KT CAVOK 17/M01 Q1030 RMK SKC MON LIB VAL NIL VIS MIN 9999

Laikas: 14:49 (13:49 UTC)


TAF: trūkstamas

Orai ataskaitas ir orų prognozės (METAR, TAF).

turimą stotys yra geltonos ir raudonos taškus žemėlapyje.

Perkelti pele per norėdami pamatyti stoties vardą.

Tada spustelėkite, norėdami matyti oro stebėjimo ir prognozės.

Norėdami pakeisti žemėlapį: spustelėkite ant žalios mygtukų su juodo kryžiaus žemyn,; žalią mygtuką su brūkšneliu, jei norite nutolinti; arba žalių rodyklių gretimoms žemėlapius.


METAR-TAF: